Time;durP1;ratioP1;P1;durP2;ratioP2;P2;SDS_P1;SDS_P2;PMS_P1;PMS_P2;Temp;Humidity;BMP_temperature;BMP_pressure;BME280_temperature;BME280_humidity;BME280_pressure;Samples;Min_cycle;Max_cycle;Signal;HPM_P1;HPM_P2
2021/06/26 00:01:28;;;;;;;17.45;15.50;;;17.00;99.90;;;;;;5035296;28;20032;-76
2021/06/26 00:03:54;;;;;;;16.45;14.60;;;17.00;99.90;;;;;;5054915;28;20029;-76
2021/06/26 00:06:20;;;;;;;16.83;14.48;;;17.00;99.90;;;;;;5053864;28;20025;-77
2021/06/26 00:08:46;;;;;;;16.60;13.95;;;16.90;99.90;;;;;;5053713;28;20043;-77
2021/06/26 00:11:12;;;;;;;15.20;13.60;;;16.80;99.90;;;;;;5034277;28;20658;-76
2021/06/26 00:13:37;;;;;;;24.42;16.50;;;16.90;99.90;;;;;;5035271;28;20021;-77
2021/06/26 00:16:03;;;;;;;18.65;16.13;;;17.00;99.90;;;;;;5035335;28;20025;-77
2021/06/26 00:18:29;;;;;;;21.42;15.98;;;17.00;99.90;;;;;;5053103;28;20025;-77
2021/06/26 00:20:54;;;;;;;20.23;15.98;;;17.10;99.90;;;;;;5052512;28;20025;-77
2021/06/26 00:23:20;;;;;;;21.65;16.08;;;17.10;99.90;;;;;;5052207;28;20479;-74
2021/06/26 00:25:46;;;;;;;23.67;16.17;;;17.10;99.90;;;;;;5052227;28;20036;-75
2021/06/26 00:28:12;;;;;;;20.85;17.52;;;17.10;99.90;;;;;;5034647;28;20029;-77
2021/06/26 00:30:38;;;;;;;21.05;16.55;;;17.10;99.90;;;;;;5051810;28;20111;-77
2021/06/26 00:33:04;;;;;;;20.15;15.88;;;17.00;99.90;;;;;;5034697;28;20378;-76
2021/06/26 00:35:29;;;;;;;21.00;14.98;;;17.00;99.90;;;;;;5068441;28;20413;-76
2021/06/26 00:37:55;;;;;;;16.13;14.50;;;16.90;99.90;;;;;;5072050;28;20025;-76
2021/06/26 00:40:21;;;;;;;21.23;17.00;;;16.80;99.90;;;;;;5071455;28;20027;-73
2021/06/26 00:42:47;;;;;;;25.00;17.48;;;16.90;99.90;;;;;;5071657;28;20033;-76
2021/06/26 00:45:14;;;;;;;19.73;16.10;;;17.00;99.90;;;;;;5054566;28;20115;-77
2021/06/26 00:47:40;;;;;;;17.58;15.65;;;17.00;99.90;;;;;;5072450;28;20017;-77
2021/06/26 00:50:20;;;;;;;17.63;15.80;;;17.00;99.90;;;;;;5071864;28;20030;-77
2021/06/26 00:52:47;;;;;;;17.00;15.15;;;16.90;99.90;;;;;;5072533;28;20074;-76
2021/06/26 00:55:14;;;;;;;20.45;15.65;;;16.80;99.90;;;;;;5054344;28;20027;-76
2021/06/26 00:57:58;;;;;;;20.13;15.18;;;16.70;99.90;;;;;;5071655;28;20059;-75
2021/06/26 01:00:26;;;;;;;19.13;15.63;;;16.60;99.90;;;;;;5071366;28;20540;-76
2021/06/26 01:02:52;;;;;;;17.30;15.30;;;16.60;99.90;;;;;;5072131;28;20028;-76
2021/06/26 01:05:18;;;;;;;21.83;17.35;;;16.60;99.90;;;;;;5039882;28;20089;-76
2021/06/26 01:07:43;;;;;;;20.92;16.63;;;16.80;99.90;;;;;;5052008;28;20029;-75
2021/06/26 01:10:10;;;;;;;21.52;16.92;;;16.80;99.90;;;;;;5051492;28;20586;-77
2021/06/26 01:12:36;;;;;;;21.20;15.32;;;16.70;99.90;;;;;;5052059;28;20055;-76
2021/06/26 01:15:05;;;;;;;20.05;15.90;;;16.70;99.90;;;;;;5052082;28;20472;-77
2021/06/26 01:17:30;;;;;;;18.38;16.30;;;16.70;99.90;;;;;;5051767;28;20109;-76
2021/06/26 01:19:56;;;;;;;20.65;17.35;;;16.60;99.90;;;;;;5051281;28;20071;-76
2021/06/26 01:22:22;;;;;;;24.70;17.83;;;16.50;99.90;;;;;;5053908;22;20048;-74
2021/06/26 01:24:50;;;;;;;24.95;19.50;;;16.50;99.90;;;;;;5052775;28;20028;-72
2021/06/26 01:27:15;;;;;;;23.10;18.15;;;16.50;99.90;;;;;;5052150;28;20021;-72
2021/06/26 01:29:52;;;;;;;27.08;17.90;;;16.30;99.90;;;;;;5051089;28;20079;-72
2021/06/26 01:32:19;;;;;;;20.02;17.48;;;16.30;99.90;;;;;;5045628;28;20039;-73
2021/06/26 01:34:44;;;;;;;24.13;19.48;;;16.30;99.90;;;;;;5072670;28;20099;-73
2021/06/26 01:37:11;;;;;;;26.02;19.77;;;16.30;99.90;;;;;;5060244;28;20453;-75
2021/06/26 01:39:37;;;;;;;23.25;19.00;;;16.30;99.90;;;;;;5078042;28;20095;-73
2021/06/26 01:42:04;;;;;;;29.80;20.77;;;16.20;99.90;;;;;;5060224;28;20112;-72
2021/06/26 01:44:29;;;;;;;26.73;20.25;;;16.20;99.90;;;;;;5078824;28;20032;-74
2021/06/26 01:46:55;;;;;;;28.70;20.88;;;16.20;99.90;;;;;;5078683;28;20091;-73
2021/06/26 01:49:20;;;;;;;35.78;20.98;;;16.20;99.90;;;;;;5077622;28;20085;-75
2021/06/26 01:51:46;;;;;;;28.67;21.70;;;16.30;99.90;;;;;;5077330;28;20532;-73
2021/06/26 01:54:14;;;;;;;32.33;22.48;;;16.30;99.90;;;;;;5096936;28;20020;-72
2021/06/26 01:56:40;;;;;;;31.88;21.52;;;16.30;99.90;;;;;;5098764;28;20012;-73
2021/06/26 01:59:06;;;;;;;29.65;22.30;;;16.30;99.90;;;;;;5080483;28;20020;-74
2021/06/26 02:01:33;;;;;;;28.58;21.65;;;16.40;99.90;;;;;;5079360;28;20035;-73
2021/06/26 02:03:59;;;;;;;31.55;23.40;;;16.40;99.90;;;;;;5098496;28;20028;-73
2021/06/26 02:06:25;;;;;;;34.72;22.85;;;16.40;99.90;;;;;;5098093;28;20487;-74
2021/06/26 02:08:50;;;;;;;35.55;21.60;;;16.50;99.90;;;;;;5098381;28;20122;-73
2021/06/26 02:11:16;;;;;;;30.33;20.63;;;16.40;99.90;;;;;;5097568;28;20077;-73
2021/06/26 02:13:42;;;;;;;28.40;20.88;;;16.40;99.90;;;;;;5098471;28;20051;-74
2021/06/26 02:16:08;;;;;;;30.80;22.10;;;16.50;99.90;;;;;;5098096;28;20032;-74
2021/06/26 02:18:33;;;;;;;31.52;22.50;;;16.50;99.90;;;;;;5079754;28;20053;-73
2021/06/26 02:20:59;;;;;;;30.33;22.00;;;16.50;99.90;;;;;;5097349;28;20097;-73
2021/06/26 02:23:25;;;;;;;28.88;21.88;;;16.50;99.90;;;;;;5079581;28;20051;-74
2021/06/26 02:25:50;;;;;;;27.30;20.98;;;16.50;99.90;;;;;;5080034;28;20024;-73
2021/06/26 02:28:16;;;;;;;26.58;21.08;;;16.50;99.90;;;;;;5098055;28;20469;-74
2021/06/26 02:30:42;;;;;;;29.27;21.95;;;16.50;99.90;;;;;;5098932;28;20091;-73
2021/06/26 02:33:08;;;;;;;34.50;22.25;;;16.50;99.90;;;;;;5099274;28;20034;-73
2021/06/26 02:35:33;;;;;;;32.65;22.35;;;16.50;99.90;;;;;;5098063;28;20020;-73
2021/06/26 02:37:59;;;;;;;32.05;23.10;;;16.50;99.90;;;;;;5098515;28;20044;-73
2021/06/26 02:40:25;;;;;;;28.40;20.95;;;16.50;99.90;;;;;;5098145;28;20024;-74
2021/06/26 02:42:50;;;;;;;21.48;17.75;;;16.40;99.90;;;;;;5099052;28;20056;-74
2021/06/26 02:45:16;;;;;;;22.55;17.98;;;16.20;99.90;;;;;;5098855;28;20073;-74
2021/06/26 02:47:42;;;;;;;23.65;19.67;;;16.20;99.90;;;;;;5094304;28;20069;-72
2021/06/26 02:50:09;;;;;;;23.83;19.63;;;16.20;99.90;;;;;;5094531;28;20043;-71
2021/06/26 02:52:35;;;;;;;22.40;17.83;;;16.10;99.90;;;;;;5102586;28;20008;-77
2021/06/26 02:55:01;;;;;;;22.52;18.15;;;15.90;99.90;;;;;;5097388;28;20492;-73
2021/06/26 02:57:26;;;;;;;22.10;18.83;;;15.80;99.90;;;;;;5094534;28;20025;-75
2021/06/26 02:59:52;;;;;;;27.88;19.85;;;15.90;99.90;;;;;;5075498;28;20450;-74
2021/06/26 03:02:18;;;;;;;25.35;19.50;;;15.90;99.90;;;;;;5094159;28;20527;-73
2021/06/26 03:04:44;;;;;;;25.40;20.13;;;15.80;99.90;;;;;;5076024;28;20024;-74
2021/06/26 03:07:10;;;;;;;31.85;21.65;;;15.80;99.90;;;;;;5094053;28;20036;-74
2021/06/26 03:09:36;;;;;;;31.30;21.02;;;15.80;99.90;;;;;;5093395;28;20028;-74
2021/06/26 03:12:03;;;;;;;28.42;20.17;;;15.70;99.90;;;;;;5094162;28;20024;-75
2021/06/26 03:14:29;;;;;;;26.45;20.73;;;15.60;99.90;;;;;;5094188;28;20050;-75
2021/06/26 03:16:55;;;;;;;29.02;21.83;;;15.40;99.90;;;;;;5093938;28;20861;-74
2021/06/26 03:19:21;;;;;;;28.98;20.20;;;15.40;99.90;;;;;;5093410;28;20016;-71
2021/06/26 03:21:46;;;;;;;30.88;19.40;;;15.30;99.90;;;;;;5093535;28;20374;-72
2021/06/26 03:24:12;;;;;;;24.83;20.33;;;15.20;99.90;;;;;;5075025;28;20051;-72
2021/06/26 03:26:38;;;;;;;26.63;20.55;;;15.20;99.90;;;;;;5073617;28;20520;-72
2021/06/26 03:29:04;;;;;;;31.48;20.95;;;15.10;99.90;;;;;;5073776;28;20055;-76
2021/06/26 03:31:31;;;;;;;29.70;20.27;;;15.20;99.90;;;;;;5047834;28;20024;-77
2021/06/26 03:33:57;;;;;;;29.98;21.27;;;15.20;99.90;;;;;;5077285;28;20025;-76
2021/06/26 03:36:24;;;;;;;35.53;21.42;;;15.20;99.90;;;;;;5077019;28;20098;-75
2021/06/26 03:38:50;;;;;;;38.63;22.92;;;15.20;99.90;;;;;;5083094;28;20027;-76
2021/06/26 03:41:16;;;;;;;37.03;23.48;;;15.20;99.90;;;;;;5078252;28;20124;-75
2021/06/26 03:43:42;;;;;;;37.17;23.00;;;15.10;99.90;;;;;;5076811;28;20044;-77
2021/06/26 03:46:08;;;;;;;34.35;23.13;;;15.10;99.90;;;;;;5073794;28;20111;-75
2021/06/26 03:48:34;;;;;;;36.33;23.52;;;15.10;99.90;;;;;;5076542;28;20040;-75
2021/06/26 03:51:00;;;;;;;34.42;23.95;;;15.00;99.90;;;;;;5046137;28;20037;-76
2021/06/26 03:53:27;;;;;;;42.28;24.67;;;15.00;99.90;;;;;;5078998;28;20025;-76
2021/06/26 03:55:52;;;;;;;34.22;23.95;;;15.10;99.90;;;;;;5089761;28;20044;-77
2021/06/26 03:58:24;;;;;;;36.22;24.08;;;15.00;99.90;;;;;;5087601;28;20024;-76
2021/06/26 04:00:50;;;;;;;37.05;24.38;;;15.00;99.90;;;;;;5083648;28;20539;-76
2021/06/26 04:03:16;;;;;;;38.08;24.23;;;15.10;99.90;;;;;;5075250;28;20021;-76
2021/06/26 04:05:45;;;;;;;45.03;24.15;;;15.00;99.90;;;;;;5079803;28;20025;-75
2021/06/26 04:08:12;;;;;;;35.75;23.95;;;14.90;99.90;;;;;;5064346;28;20025;-76
2021/06/26 04:10:38;;;;;;;32.55;22.98;;;14.90;99.90;;;;;;5066881;28;20081;-76
2021/06/26 04:13:05;;;;;;;29.55;22.17;;;14.80;99.90;;;;;;5066986;28;20021;-75
2021/06/26 04:15:31;;;;;;;30.02;21.75;;;14.80;99.90;;;;;;5053665;28;20092;-76
2021/06/26 04:17:56;;;;;;;27.30;20.85;;;14.90;99.90;;;;;;5052872;28;20088;-72
2021/06/26 04:20:22;;;;;;;29.52;21.95;;;14.90;99.90;;;;;;5032327;28;20430;-71
2021/06/26 04:22:48;;;;;;;28.20;20.52;;;14.90;99.90;;;;;;5066320;28;20061;-74
2021/06/26 04:25:14;;;;;;;22.17;18.63;;;15.00;99.90;;;;;;5085049;28;20032;-79
2021/06/26 04:27:40;;;;;;;25.77;20.55;;;15.20;99.90;;;;;;5060481;28;20073;-77
2021/06/26 04:30:07;;;;;;;30.05;20.98;;;15.40;99.90;;;;;;5061137;28;20021;-77
2021/06/26 04:32:35;;;;;;;28.95;21.05;;;15.50;99.90;;;;;;5059271;28;21259;-77
2021/06/26 04:35:01;;;;;;;31.50;20.58;;;15.60;99.90;;;;;;5060102;28;20028;-78
2021/06/26 04:37:26;;;;;;;30.40;20.48;;;15.60;99.90;;;;;;5061237;28;20017;-79
2021/06/26 04:39:52;;;;;;;28.05;21.00;;;15.70;99.90;;;;;;5062636;28;20032;-78
2021/06/26 04:42:17;;;;;;;27.45;20.05;;;15.70;99.90;;;;;;5060096;28;20453;-80
2021/06/26 04:44:43;;;;;;;26.52;20.85;;;15.70;99.90;;;;;;5060716;28;20024;-79
2021/06/26 04:47:09;;;;;;;28.73;20.73;;;15.80;99.90;;;;;;5062582;28;20036;-74
2021/06/26 04:49:35;;;;;;;28.70;20.77;;;15.80;99.90;;;;;;5061521;28;20028;-76
2021/06/26 04:52:02;;;;;;;27.05;19.92;;;15.80;99.90;;;;;;5058381;28;20548;-75
2021/06/26 04:54:28;;;;;;;30.27;21.48;;;15.80;99.90;;;;;;5063325;28;20017;-75
2021/06/26 04:56:54;;;;;;;33.20;21.88;;;15.90;99.90;;;;;;5061677;28;20074;-75
2021/06/26 04:59:19;;;;;;;27.60;21.25;;;15.90;99.90;;;;;;5056414;28;20028;-75
2021/06/26 05:01:45;;;;;;;29.75;19.58;;;15.90;99.90;;;;;;5061125;28;20025;-75
2021/06/26 05:04:11;;;;;;;24.73;19.83;;;15.90;99.90;;;;;;5071777;28;20055;-71
2021/06/26 05:06:36;;;;;;;25.50;18.80;;;16.00;99.90;;;;;;5071205;28;20028;-73
2021/06/26 05:09:03;;;;;;;23.98;19.33;;;16.10;99.90;;;;;;5071149;28;20033;-70
2021/06/26 05:11:28;;;;;;;33.45;20.70;;;16.20;99.90;;;;;;5069648;28;20024;-69
2021/06/26 05:13:54;;;;;;;30.25;19.83;;;16.20;99.90;;;;;;5071838;28;20036;-69
2021/06/26 05:16:20;;;;;;;28.67;20.65;;;16.20;99.90;;;;;;5071718;28;20039;-76
2021/06/26 05:18:45;;;;;;;26.23;19.50;;;16.30;99.90;;;;;;5071655;28;20029;-74
2021/06/26 05:21:11;;;;;;;22.27;17.85;;;16.20;99.90;;;;;;5069764;28;20077;-73
2021/06/26 05:23:37;;;;;;;22.77;18.40;;;16.20;99.90;;;;;;5084602;28;20034;-76
2021/06/26 05:26:03;;;;;;;22.83;18.92;;;16.30;99.90;;;;;;5080298;28;20028;-74
2021/06/26 05:28:30;;;;;;;24.80;18.90;;;16.40;99.90;;;;;;5071131;28;20036;-72
2021/06/26 05:30:56;;;;;;;22.02;17.60;;;16.50;99.90;;;;;;5070755;28;20056;-73
2021/06/26 05:33:22;;;;;;;19.88;16.73;;;16.60;99.90;;;;;;5071237;28;20208;-73
2021/06/26 05:35:49;;;;;;;19.33;15.98;;;16.70;99.90;;;;;;5053368;28;20463;-75
2021/06/26 05:38:15;;;;;;;19.40;16.02;;;16.80;99.90;;;;;;5071101;28;20104;-73
2021/06/26 05:40:41;;;;;;;21.08;16.60;;;16.80;99.90;;;;;;5070359;28;20086;-74
2021/06/26 05:43:07;;;;;;;22.23;16.33;;;17.00;99.90;;;;;;5071102;28;20028;-73
2021/06/26 05:45:32;;;;;;;16.05;14.35;;;17.10;99.90;;;;;;5070914;28;20067;-73
2021/06/26 05:47:58;;;;;;;16.88;14.13;;;17.10;99.90;;;;;;5071010;28;20052;-75
2021/06/26 05:50:24;;;;;;;15.73;13.40;;;17.10;99.90;;;;;;5070581;28;20028;-73
2021/06/26 05:52:52;;;;;;;14.90;13.05;;;17.00;99.90;;;;;;5077765;28;20028;-72
2021/06/26 05:55:18;;;;;;;17.98;14.23;;;17.00;99.90;;;;;;5090950;28;20027;-73
2021/06/26 05:57:44;;;;;;;16.25;12.85;;;17.10;99.90;;;;;;5091392;28;20023;-72
2021/06/26 06:00:12;;;;;;;20.65;14.85;;;17.20;99.90;;;;;;5072320;28;20043;-75
2021/06/26 06:02:38;;;;;;;21.77;14.98;;;17.30;99.90;;;;;;5090939;28;20035;-75
2021/06/26 06:05:07;;;;;;;18.27;13.52;;;17.50;99.90;;;;;;5091289;28;20024;-75
2021/06/26 06:07:34;;;;;;;17.20;12.95;;;17.60;99.90;;;;;;5090834;28;20489;-75
2021/06/26 06:09:59;;;;;;;16.30;13.85;;;17.70;99.90;;;;;;5091628;28;20024;-78
2021/06/26 06:12:25;;;;;;;16.00;14.25;;;17.80;99.90;;;;;;5091464;28;20039;-77
2021/06/26 06:14:51;;;;;;;17.88;14.65;;;17.80;99.90;;;;;;5090990;28;20031;-74
2021/06/26 06:17:16;;;;;;;15.90;14.27;;;17.90;99.90;;;;;;5091362;28;20024;-75
2021/06/26 06:19:42;;;;;;;16.33;14.50;;;17.80;99.90;;;;;;5090819;28;20478;-75
2021/06/26 06:22:08;;;;;;;17.05;13.85;;;17.70;99.90;;;;;;5091479;28;20086;-74
2021/06/26 06:24:35;;;;;;;16.80;13.48;;;17.60;99.90;;;;;;5095747;28;20084;-74
2021/06/26 06:27:01;;;;;;;16.40;13.63;;;17.70;99.90;;;;;;5058685;28;20452;-74
2021/06/26 06:29:26;;;;;;;15.95;12.27;;;17.90;99.90;;;;;;5075678;28;20031;-73
2021/06/26 06:31:52;;;;;;;19.35;14.43;;;18.00;99.90;;;;;;5076046;28;20036;-73
2021/06/26 06:34:18;;;;;;;19.52;14.18;;;18.20;99.90;;;;;;5078093;28;20024;-73
2021/06/26 06:36:43;;;;;;;18.42;13.10;;;18.20;99.90;;;;;;5074588;28;20028;-73
2021/06/26 06:39:09;;;;;;;14.05;12.40;;;18.20;99.90;;;;;;5075167;28;20020;-75
2021/06/26 06:41:35;;;;;;;28.85;13.20;;;18.30;99.90;;;;;;5073586;28;20028;-73
2021/06/26 06:44:00;;;;;;;18.15;12.75;;;18.20;99.90;;;;;;5074211;28;20028;-73
2021/06/26 06:46:26;;;;;;;17.33;13.93;;;18.40;99.90;;;;;;5074140;28;20024;-75
2021/06/26 06:48:51;;;;;;;16.20;13.38;;;18.50;99.90;;;;;;5087217;28;20067;-72
2021/06/26 06:51:17;;;;;;;15.55;12.70;;;18.60;99.90;;;;;;5093558;28;20057;-73
2021/06/26 06:53:43;;;;;;;22.08;13.52;;;18.80;99.90;;;;;;5092435;28;20096;-73
2021/06/26 06:56:08;;;;;;;13.88;12.43;;;18.90;99.90;;;;;;5075884;28;20125;-72
2021/06/26 06:58:34;;;;;;;15.82;13.45;;;19.00;99.90;;;;;;5094166;28;20028;-73
2021/06/26 07:01:00;;;;;;;16.55;13.27;;;18.90;99.90;;;;;;5093816;28;20024;-73
2021/06/26 07:03:25;;;;;;;13.35;11.93;;;18.80;99.90;;;;;;5094843;28;20093;-73
2021/06/26 07:05:51;;;;;;;15.45;13.35;;;18.80;99.90;;;;;;5076647;28;20085;-71
2021/06/26 07:08:17;;;;;;;15.75;12.88;;;18.90;99.90;;;;;;5093798;28;20054;-72
2021/06/26 07:10:43;;;;;;;15.00;13.23;;;18.90;99.90;;;;;;5095340;28;20070;-74
2021/06/26 07:13:09;;;;;;;14.60;13.05;;;19.10;99.90;;;;;;5077117;28;20020;-74
2021/06/26 07:15:35;;;;;;;15.10;13.13;;;19.30;99.90;;;;;;5096090;28;20108;-73
2021/06/26 07:18:01;;;;;;;13.63;11.80;;;19.40;99.90;;;;;;5093012;28;20500;-77
2021/06/26 07:20:26;;;;;;;15.18;12.90;;;19.60;99.90;;;;;;5093175;28;20025;-74
2021/06/26 07:22:54;;;;;;;13.88;12.52;;;19.80;99.90;;;;;;5110527;22;20040;-75
2021/06/26 07:25:19;;;;;;;13.48;12.10;;;19.90;99.90;;;;;;5092538;28;20016;-76
2021/06/26 07:27:45;;;;;;;15.68;11.90;;;20.00;99.90;;;;;;5099120;28;20020;-76
2021/06/26 07:30:11;;;;;;;15.35;11.77;;;19.80;99.90;;;;;;5093481;28;20016;-75
2021/06/26 07:32:37;;;;;;;13.93;11.55;;;19.80;99.90;;;;;;5094764;28;20462;-76
2021/06/26 07:35:03;;;;;;;11.52;10.43;;;20.00;99.90;;;;;;5099951;28;20024;-76
2021/06/26 07:37:29;;;;;;;12.15;10.85;;;20.20;99.90;;;;;;5099730;28;20024;-76
2021/06/26 07:39:54;;;;;;;10.93;9.82;;;20.30;99.90;;;;;;5096355;28;20416;-75
2021/06/26 07:42:20;;;;;;;11.35;10.27;;;20.60;99.90;;;;;;5100900;28;20103;-74
2021/06/26 07:44:46;;;;;;;11.60;9.23;;;21.00;99.90;;;;;;5100501;28;20656;-75
2021/06/26 07:47:12;;;;;;;11.65;9.10;;;21.30;99.90;;;;;;5100512;28;20042;-73
2021/06/26 07:49:37;;;;;;;9.75;8.75;;;21.40;99.90;;;;;;5096549;28;20409;-76
2021/06/26 07:52:04;;;;;;;8.93;8.13;;;21.40;99.90;;;;;;5099869;28;20035;-76
2021/06/26 07:54:30;;;;;;;12.15;9.88;;;21.50;99.90;;;;;;5099306;28;20022;-74
2021/06/26 07:56:55;;;;;;;13.80;10.80;;;21.60;99.90;;;;;;5096282;28;20028;-74
2021/06/26 07:59:21;;;;;;;10.98;9.88;;;21.60;99.90;;;;;;5082897;28;20381;-76
2021/06/26 08:01:46;;;;;;;9.70;8.70;;;21.70;99.90;;;;;;5074531;28;20514;-75
2021/06/26 08:04:12;;;;;;;10.00;9.00;;;21.90;99.90;;;;;;5077335;28;20025;-74
2021/06/26 08:06:38;;;;;;;12.05;8.23;;;22.00;99.90;;;;;;5078142;28;20033;-77
2021/06/26 08:09:04;;;;;;;10.43;9.32;;;22.40;99.90;;;;;;5093179;28;20039;-77
2021/06/26 08:11:30;;;;;;;8.48;7.78;;;22.90;99.90;;;;;;5104305;28;20024;-77
2021/06/26 08:13:57;;;;;;;10.38;8.20;;;23.00;99.90;;;;;;5095068;28;20034;-77
2021/06/26 08:16:24;;;;;;;8.80;8.00;;;22.80;99.90;;;;;;5094327;28;20016;-77
2021/06/26 08:18:49;;;;;;;8.65;7.95;;;22.60;99.90;;;;;;5099080;28;20040;-76
2021/06/26 08:21:19;;;;;;;8.98;8.10;;;22.80;99.90;;;;;;5094074;28;20174;-78
2021/06/26 08:23:44;;;;;;;9.50;8.60;;;22.70;99.90;;;;;;5097005;28;20082;-75
2021/06/26 08:26:10;;;;;;;8.40;7.65;;;22.50;99.90;;;;;;5091682;28;20032;-77
2021/06/26 08:28:36;;;;;;;9.23;8.32;;;21.80;99.90;;;;;;5083596;28;20029;-77
2021/06/26 08:31:02;;;;;;;8.75;7.95;;;22.40;99.90;;;;;;5082077;28;20118;-77
2021/06/26 08:33:28;;;;;;;8.93;8.02;;;22.50;99.90;;;;;;5088641;28;20033;-75
2021/06/26 08:35:54;;;;;;;8.80;8.00;;;22.60;99.90;;;;;;5069776;28;20025;-75
2021/06/26 08:38:19;;;;;;;8.77;7.25;;;22.50;99.90;;;;;;5064410;28;20016;-75
2021/06/26 08:40:47;;;;;;;8.05;7.25;;;22.60;99.90;;;;;;5083911;28;20084;-76
2021/06/26 08:43:12;;;;;;;8.40;7.20;;;22.80;99.90;;;;;;5065702;28;20036;-76
2021/06/26 08:45:39;;;;;;;8.55;7.75;;;23.20;99.90;;;;;;5085139;28;20036;-77
2021/06/26 08:48:05;;;;;;;8.32;7.63;;;23.20;99.90;;;;;;5089570;28;20028;-77
2021/06/26 08:50:30;;;;;;;9.13;7.38;;;23.20;99.90;;;;;;5074624;28;20064;-78
2021/06/26 08:52:56;;;;;;;8.68;7.95;;;22.70;99.90;;;;;;5097461;28;20032;-79
2021/06/26 08:55:23;;;;;;;8.80;8.10;;;23.50;99.90;;;;;;5091345;28;20024;-79
2021/06/26 08:57:49;;;;;;;8.60;7.85;;;23.90;99.90;;;;;;5074468;28;20020;-78
2021/06/26 09:00:15;;;;;;;8.25;7.50;;;24.20;99.90;;;;;;5086863;28;20024;-77
2021/06/26 09:02:41;;;;;;;6.68;6.07;;;24.60;99.90;;;;;;5081939;28;20021;-77
2021/06/26 09:05:09;;;;;;;6.47;5.88;;;25.10;99.90;;;;;;5068165;28;20039;-78
2021/06/26 09:07:37;;;;;;;6.00;5.50;;;25.30;99.90;;;;;;5089224;28;20689;-78
2021/06/26 09:10:22;;;;;;;5.40;5.00;;;25.30;99.90;;;;;;5083758;28;20024;-78
2021/06/26 09:12:50;;;;;;;6.65;5.97;;;26.60;99.90;;;;;;5091658;28;20031;-78
2021/06/26 09:15:28;;;;;;;5.88;5.40;;;25.80;99.90;;;;;;5067179;28;20047;-77
2021/06/26 09:17:57;;;;;;;9.38;5.85;;;25.70;99.90;;;;;;5086001;28;20473;-76
2021/06/26 09:20:39;;;;;;;7.20;6.60;;;25.50;99.90;;;;;;5071212;28;20131;-78
2021/06/26 09:23:14;;;;;;;6.15;5.75;;;26.00;99.90;;;;;;5081359;28;20103;-78
2021/06/26 09:25:40;;;;;;;7.18;6.00;;;26.50;99.90;;;;;;5097133;28;20012;-77
2021/06/26 09:28:09;;;;;;;5.90;5.40;;;26.40;99.90;;;;;;5089256;28;20033;-74
2021/06/26 09:30:42;;;;;;;7.32;6.63;;;25.70;99.90;;;;;;5089669;28;20385;-74
2021/06/26 09:33:21;;;;;;;6.82;6.13;;;25.40;99.90;;;;;;5097333;28;20039;-77
2021/06/26 09:36:08;;;;;;;6.22;5.72;;;25.00;99.90;;;;;;5087865;28;20051;-77
2021/06/26 09:38:55;;;;;;;8.27;6.43;;;24.80;99.90;;;;;;5091628;28;20027;-75
2021/06/26 09:41:22;;;;;;;6.47;5.93;;;25.50;99.90;;;;;;5084885;28;20592;-74
2021/06/26 09:43:48;;;;;;;6.15;5.65;;;25.30;99.90;;;;;;5087339;28;20029;-75
2021/06/26 09:46:16;;;;;;;9.55;5.50;;;26.10;99.90;;;;;;5086878;28;20032;-75
2021/06/26 09:48:50;;;;;;;6.30;5.80;;;26.10;99.90;;;;;;5096255;28;20028;-76
2021/06/26 09:51:20;;;;;;;5.97;5.45;;;25.80;99.90;;;;;;5097858;28;20009;-77
2021/06/26 09:53:59;;;;;;;6.97;6.38;;;25.50;99.90;;;;;;5098849;28;20027;-78
2021/06/26 09:56:47;;;;;;;7.43;6.72;;;25.70;99.90;;;;;;5108092;28;20027;-76
2021/06/26 09:59:17;;;;;;;6.68;6.07;;;25.00;99.90;;;;;;5100534;28;20042;-77
2021/06/26 10:01:45;;;;;;;5.95;5.55;;;25.90;99.90;;;;;;5105424;28;20015;-76
2021/06/26 10:04:15;;;;;;;7.53;6.10;;;25.90;99.90;;;;;;5105347;28;20012;-76
2021/06/26 10:06:46;;;;;;;6.07;5.63;;;25.40;99.90;;;;;;5100215;28;20029;-77
2021/06/26 10:09:13;;;;;;;6.75;6.25;;;25.50;99.90;;;;;;5096353;28;20049;-74
2021/06/26 10:11:39;;;;;;;7.00;6.40;;;26.30;99.90;;;;;;5082298;28;20032;-77
2021/06/26 10:14:07;;;;;;;6.38;5.88;;;26.20;99.90;;;;;;5086978;28;20031;-76
2021/06/26 10:16:34;;;;;;;7.00;6.30;;;26.10;99.90;;;;;;5084484;28;20028;-77
2021/06/26 10:19:03;;;;;;;6.38;5.97;;;25.90;99.90;;;;;;5097305;28;20068;-76
2021/06/26 10:21:30;;;;;;;8.43;7.05;;;25.60;99.90;;;;;;5098235;28;20020;-77
2021/06/26 10:23:58;;;;;;;6.00;5.60;;;26.00;99.90;;;;;;5094310;28;20059;-78
2021/06/26 10:26:25;;;;;;;5.75;5.28;;;26.50;99.90;;;;;;5097912;28;20512;-76
2021/06/26 10:29:01;;;;;;;6.82;6.32;;;26.50;99.90;;;;;;5091010;28;20021;-75
2021/06/26 10:31:30;;;;;;;6.97;6.38;;;25.80;99.90;;;;;;5089533;28;20032;-76
2021/06/26 10:34:18;;;;;;;6.55;5.80;;;26.00;99.90;;;;;;5086750;28;20762;-76
2021/06/26 10:36:51;;;;;;;6.30;5.80;;;26.60;99.70;;;;;;5090155;28;20858;-75
2021/06/26 10:39:19;;;;;;;5.78;5.38;;;26.30;98.80;;;;;;5088070;28;20393;-75
2021/06/26 10:41:56;;;;;;;6.05;5.63;;;26.30;99.60;;;;;;5086869;28;20055;-77
2021/06/26 10:44:22;;;;;;;4.97;4.60;;;26.50;99.80;;;;;;5090885;28;20077;-73
2021/06/26 10:46:48;;;;;;;6.15;5.63;;;27.30;99.90;;;;;;5087554;28;20032;-74
2021/06/26 10:49:14;;;;;;;5.75;5.25;;;27.00;97.90;;;;;;5087277;28;20032;-73
2021/06/26 10:51:42;;;;;;;5.03;4.63;;;26.80;99.40;;;;;;5084018;28;20043;-74
2021/06/26 10:54:15;;;;;;;4.72;4.38;;;26.50;97.80;;;;;;5086990;28;20020;-76
2021/06/26 10:56:43;;;;;;;5.55;5.07;;;26.60;99.10;;;;;;5085182;28;20107;-76
2021/06/26 10:59:15;;;;;;;5.75;5.15;;;26.60;98.30;;;;;;5086215;28;20031;-76
2021/06/26 11:01:56;;;;;;;5.80;5.40;;;26.90;97.80;;;;;;5086722;28;20082;-77
2021/06/26 11:04:22;;;;;;;4.82;4.45;;;27.10;98.30;;;;;;5084136;28;20021;-74
2021/06/26 11:06:52;;;;;;;5.38;4.97;;;27.70;97.90;;;;;;5083281;28;20470;-74
2021/06/26 11:09:19;;;;;;;4.70;4.30;;;28.10;95.80;;;;;;5081870;28;20554;-74
2021/06/26 11:11:50;;;;;;;5.38;4.97;;;27.50;96.30;;;;;;5082145;28;20465;-75
2021/06/26 11:14:26;;;;;;;4.95;4.55;;;26.90;96.30;;;;;;5083518;28;20099;-76
2021/06/26 11:16:54;;;;;;;4.05;3.75;;;26.10;98.70;;;;;;5083035;28;20020;-74
2021/06/26 11:19:21;;;;;;;4.50;4.18;;;26.90;97.00;;;;;;5082028;28;20426;-75
2021/06/26 11:21:54;;;;;;;4.30;3.90;;;27.70;95.30;;;;;;5082181;28;20028;-74
2021/06/26 11:24:34;;;;;;;4.28;3.88;;;28.40;95.60;;;;;;5074943;28;20107;-75
2021/06/26 11:27:01;;;;;;;3.95;3.75;;;28.50;93.80;;;;;;5069341;28;20024;-74
2021/06/26 11:29:28;;;;;;;4.28;3.97;;;28.40;95.30;;;;;;5053490;28;20021;-74
2021/06/26 11:31:54;;;;;;;4.20;3.90;;;28.60;96.00;;;;;;5071642;28;20039;-74
2021/06/26 11:34:20;;;;;;;4.15;3.85;;;28.60;95.00;;;;;;5072227;28;20024;-74
2021/06/26 11:37:06;;;;;;;4.45;4.15;;;29.00;95.00;;;;;;5054099;28;20034;-74
2021/06/26 11:39:34;;;;;;;4.82;4.43;;;29.10;93.50;;;;;;5068632;28;20039;-72
2021/06/26 11:42:00;;;;;;;10.27;4.13;;;29.40;93.40;;;;;;5071635;28;20090;-73
2021/06/26 11:44:38;;;;;;;3.92;3.72;;;29.00;92.40;;;;;;5071840;28;20035;-73
2021/06/26 11:47:06;;;;;;;4.50;4.15;;;28.90;93.70;;;;;;5071910;28;20035;-73
2021/06/26 11:49:41;;;;;;;4.32;4.03;;;28.70;92.70;;;;;;5070930;28;20595;-72
2021/06/26 11:52:09;;;;;;;4.05;3.78;;;28.40;92.50;;;;;;5071319;28;20115;-72
2021/06/26 11:54:35;;;;;;;4.22;3.83;;;28.60;93.50;;;;;;5071538;28;20075;-73
2021/06/26 11:57:00;;;;;;;3.85;3.65;;;28.60;91.80;;;;;;5071757;28;20428;-73
2021/06/26 11:59:37;;;;;;;3.63;3.40;;;28.70;93.30;;;;;;5070667;28;20023;-73
2021/06/26 12:02:03;;;;;;;3.42;3.22;;;28.70;91.50;;;;;;5071062;28;20086;-72
2021/06/26 12:04:31;;;;;;;4.47;3.83;;;28.80;91.00;;;;;;5071470;28;20020;-73
2021/06/26 12:06:57;;;;;;;3.92;3.70;;;28.40;92.10;;;;;;5071335;28;20040;-73
2021/06/26 12:09:25;;;;;;;4.13;3.72;;;28.30;91.90;;;;;;5070746;28;20047;-72
2021/06/26 12:11:53;;;;;;;3.97;3.50;;;28.20;93.20;;;;;;5070813;28;20016;-73
2021/06/26 12:14:30;;;;;;;4.22;3.72;;;28.90;94.40;;;;;;5071103;28;20494;-72
2021/06/26 12:17:12;;;;;;;4.43;3.75;;;29.00;91.20;;;;;;5069914;28;20556;-73
2021/06/26 12:19:39;;;;;;;3.08;2.88;;;28.90;90.30;;;;;;5066624;28;20548;-73
2021/06/26 12:22:06;;;;;;;4.65;3.28;;;28.70;90.20;;;;;;5071571;28;20032;-73
2021/06/26 12:24:40;;;;;;;4.60;2.75;;;28.70;90.10;;;;;;5080675;28;20055;-73
2021/06/26 12:27:23;;;;;;;4.93;3.40;;;27.70;92.10;;;;;;5064267;28;20050;-74
2021/06/26 12:30:13;;;;;;;3.90;3.03;;;27.80;92.70;;;;;;5079357;28;20107;-75
2021/06/26 12:32:39;;;;;;;4.03;3.08;;;28.00;92.80;;;;;;5064367;28;20093;-75
2021/06/26 12:35:07;;;;;;;4.65;3.83;;;28.10;92.70;;;;;;5080260;28;20016;-74